Archer City, TX (76351)

2:50 PM CDT on July 30, 2015 (GMT -0500)
Parker Rd | | Change Station
CLOSE
Current Station
Personal Weather Station
Location: Wichita Falls, TX
Elevation: 1030 ft
Nearby Weather Stations

Elev 1030 ft 33.80 °N, 98.54 °W | Updated 6 minutes ago

Partly Cloudy
Partly Cloudy
102.7 °F
Feels Like 108 °F
N
3.7
Wind Variable Wind from South

Today
High -- | Low -- °F
--% Chance of Precip.
Yesterday
High -- | Low -- °F
Precip. -- in
6:45 AM 8:36 PM
Waxing Gibbous, 99% visible
Pressure 30.09 in
Visibility 10.0 miles
Clouds Scattered Clouds 8500 ft
Scattered Clouds 9000 ft
Heat Index 108 °F
Dew Point 66 °F
Humidity 31%
Rainfall 0.00 in
Snow Depth Not available.
UV 9 out of 12
Pollen 5.30 out of 12
Air Quality Not available.
Flu Activity Not available.
METAR KCWC 301935Z AUTO 00000KT 10SM SCT085 SCT090 39/16 A3009 RMK AO2 T03850159

More Conditions Fewer Conditions

Pressure 30.09 in
Visibility 10.0 miles
Clouds Scattered Clouds 8500 ft
Scattered Clouds 9000 ft
Heat Index 108 °F
Dew Point 66 °F
Humidity 31%
Rainfall 0.00 in
Snow Depth Not available.
UV 9 out of 12
Pollen 5.30 out of 12
Air Quality Not available.
Flu Activity Not available.
METAR KCWC 301935Z AUTO 00000KT 10SM SCT085 SCT090 39/16 A3009 RMK AO2 T03850159

More Conditions Fewer Conditions

10-Day Weather Forecast

×

Almanac

Astronomy

Jul. 30, 2015 Rise Set
Actual Time
Civil Twilight
Nautical Twilight
Astronomical Twilight
Moon
Length of Visible Light
Length of Day
Tomorrow will be .
, % of the Moon is Illuminated

Today's Extremes

State Highs State Lows

Community

WunderPhotos

Upload Photos

1,842,486 photos uploaded!

WunderBlogs® & News

Nearby

Air Quality

  Air Quality AQ Index Pollutant
Not available.

Snow Depth

Station Depth Elevation

Earthquake Activity

City Distance Mag. Time & Date
Minimum magnitude displayed is 2.5.

Coastal Water Temperatures

Place Temperature

Stations

Nearby Weather Stations

Station Location Temp. Windchill Dew Point Humidity Wind Precip. Elev Updated Type